Tropical Cyclones
[Index]
Main Index Home Page Stock Weather Photos Extreme Storms Discussion Storm News and Storm Chasing Reports Tropical Cyclones / Hurricanes / Typhoons Weather Data and Links Wild Fires / Bushfires Weather Observation Techniques Weather Picture Catalogue Tornado Pictures and Reports Stock Video Footage and DVDs for sale
Season 1998-1999 Tropical Cyclone TROP-LOW-04 Track Map
Season 1998-1999 Summaries (Operational Data): [AU] [SIO] [SPAC] [SH]
<<- Previous TC | 1998-1999 Season | Next TC ->>

click for intensity scale information  Lat/long Grid: Show Hide

 Date Labels: Show Hide

Operational Tropical Cyclone Data

Name: TROP-LOW-04
Number: 99PD

13 Apr 1999 06:00 UTC to 26 Apr 1999 04:00 UTC

    date/time    lat    long     hPa   cat  kts
1999-04-13 06    7.0   136.0    1006                     
1999-04-14 06    9.0   139.0    1006                     
1999-04-14 12    8.5   139.5    1002                     
1999-04-15 06    8.5   139.5    1004                     
1999-04-16 06    9.5   139.0    1002         30          
1999-04-16 12   10.0   139.5    1001         30          
1999-04-16 18   10.5   139.5     999         30          
1999-04-17 00   11.0   140.0     999         30          
1999-04-17 06   10.5   139.5     999         30          
1999-04-17 12   10.0   139.8     999    1    35          
1999-04-17 18   10.0   140.0     999    1    35          
1999-04-18 00   10.8   140.0    1000         30          
1999-04-18 06   11.9   140.0    1000         30          
1999-04-19 06   12.0   140.5    1000         30          
1999-04-20 06   12.0   140.5    1005                     
1999-04-22 06   12.0   137.0    1007                     
1999-04-23 06   12.0   137.0    1007                     
1999-04-24 06   12.0   137.0                             
1999-04-25 04   11.0   127.0    1006                     
1999-04-26 04   10.0   128.0    1008                     
Winds are 10-min average.

Tropical cyclone tracks developed by Michael Bath using operational warnings and advisories and Google Maps.


[Australian Severe Weather index] [Copyright Notice] [Email Contacts] [Search This Site] [Privacy Policy]
Document: tropical_cyclone_trop-low-04.htm Updated: 28 May 2013